OCN5ZT LGMK-EDDF
Flight info
| Callsign | OCN5ZT |
|---|---|
| Flight time | 2h 57m |
| Altitude | 38000 |
| Route | VARIX UL995 KEA UL52 KOR UL613 YNN UL611 TUMBO DCT RODON DCT VAKSU DCT ROTAR DCT UNTAD DCT RESIA DCT ARGAX DCT LADOL/N0429F320 T163 EMPAX |
| Aircraft | A320/M-SDE2E3FGIJ1LORWXYZ/HB1 |
Departure
| Time | 2026-05-08 15:22 |
|---|---|
| Airport | Mykonos Island National Airport (LGMK) |
Arrival
| Time | 2026-05-08 18:20 |
|---|---|
| Airport | Frankfurt Main Airport (EDDF) |
| Time | Latitude | Longitude | Altitude | Speed | Heading |
|---|---|---|---|---|---|
| 2026-05-08 14:29 | 37.43463 | 25.34657 | 407 ft | 0 kts | 251° |
| 2026-05-08 15:10 | 37.43468 | 25.34680 | 407 ft | 4 kts | 264° |
| 2026-05-08 15:10 | 37.43465 | 25.34712 | 407 ft | 4 kts | 300° |
| 2026-05-08 15:10 | 37.43448 | 25.34735 | 405 ft | 4 kts | 335° |
| 2026-05-08 15:11 | 37.43434 | 25.34742 | 408 ft | 0 kts | 341° |
| 2026-05-08 15:16 | 37.43438 | 25.34740 | 408 ft | 4 kts | 341° |
| 2026-05-08 15:16 | 37.43513 | 25.34706 | 408 ft | 13 kts | 341° |
| 2026-05-08 15:16 | 37.43589 | 25.34673 | 407 ft | 10 kts | 341° |
| 2026-05-08 15:16 | 37.43604 | 25.34668 | 407 ft | 0 kts | 351° |
| 2026-05-08 15:17 | 37.43666 | 25.34710 | 408 ft | 18 kts | 33° |
| 2026-05-08 15:17 | 37.43813 | 25.34689 | 411 ft | 24 kts | 340° |
| 2026-05-08 15:18 | 37.43974 | 25.34617 | 411 ft | 25 kts | 340° |
| 2026-05-08 15:18 | 37.44146 | 25.34541 | 407 ft | 24 kts | 340° |
| 2026-05-08 15:18 | 37.44254 | 25.34473 | 404 ft | 14 kts | 311° |
| 2026-05-08 15:18 | 37.44296 | 25.34476 | 404 ft | 3 kts | 125° |
| 2026-05-08 15:19 | 37.44259 | 25.34493 | 405 ft | 3 kts | 159° |
| 2026-05-08 15:19 | 37.44258 | 25.34493 | 401 ft | 0 kts | 159° |
| 2026-05-08 15:22 | 37.44228 | 25.34507 | 406 ft | 24 kts | 160° |
| 2026-05-08 15:22 | 37.43802 | 25.34695 | 410 ft | 103 kts | 161° |
| 2026-05-08 15:22 | 37.42923 | 25.35086 | 475 ft | 157 kts | 160° |
| 2026-05-08 15:22 | 37.41897 | 25.35526 | 1298 ft | 155 kts | 162° |
| 2026-05-08 15:23 | 37.40857 | 25.35968 | 1986 ft | 163 kts | 160° |
| 2026-05-08 15:23 | 37.39757 | 25.36454 | 2365 ft | 174 kts | 160° |
| 2026-05-08 15:23 | 37.38592 | 25.36984 | 2593 ft | 189 kts | 160° |
| 2026-05-08 15:23 | 37.37295 | 25.37573 | 2909 ft | 204 kts | 161° |
| 2026-05-08 15:24 | 37.35957 | 25.38160 | 3465 ft | 204 kts | 161° |
| 2026-05-08 15:24 | 37.34532 | 25.38529 | 3781 ft | 220 kts | 182° |
| 2026-05-08 15:24 | 37.33016 | 25.37931 | 4037 ft | 243 kts | 216° |
| 2026-05-08 15:24 | 37.32013 | 25.36178 | 4470 ft | 261 kts | 254° |
| 2026-05-08 15:25 | 37.31942 | 25.33882 | 5196 ft | 267 kts | 274° |
| 2026-05-08 15:25 | 37.32209 | 25.31555 | 6040 ft | 271 kts | 278° |
| 2026-05-08 15:25 | 37.32577 | 25.29234 | 6937 ft | 270 kts | 279° |
| 2026-05-08 15:25 | 37.32969 | 25.26920 | 7742 ft | 272 kts | 279° |
| 2026-05-08 15:26 | 37.33348 | 25.24599 | 8496 ft | 272 kts | 279° |
| 2026-05-08 15:26 | 37.33717 | 25.22251 | 9219 ft | 275 kts | 279° |
| 2026-05-08 15:26 | 37.34065 | 25.19951 | 9948 ft | 277 kts | 278° |
| 2026-05-08 15:26 | 37.34420 | 25.17531 | 10723 ft | 276 kts | 279° |
| 2026-05-08 15:27 | 37.34752 | 25.15183 | 11496 ft | 276 kts | 279° |
| 2026-05-08 15:27 | 37.35084 | 25.12806 | 12247 ft | 277 kts | 279° |
| 2026-05-08 15:27 | 37.35411 | 25.10420 | 13014 ft | 277 kts | 279° |
| 2026-05-08 15:27 | 37.35742 | 25.08034 | 13711 ft | 278 kts | 280° |
| 2026-05-08 15:28 | 37.36079 | 25.05630 | 14365 ft | 280 kts | 280° |
| 2026-05-08 15:28 | 37.36452 | 25.03219 | 14976 ft | 283 kts | 285° |
| 2026-05-08 15:28 | 37.37073 | 25.00802 | 15199 ft | 300 kts | 288° |
| 2026-05-08 15:28 | 37.37754 | 24.98230 | 15338 ft | 319 kts | 288° |
| 2026-05-08 15:29 | 37.38480 | 24.95522 | 15560 ft | 333 kts | 288° |
| 2026-05-08 15:29 | 37.39231 | 24.92743 | 16061 ft | 337 kts | 288° |
| 2026-05-08 15:29 | 37.39961 | 24.90033 | 16582 ft | 341 kts | 288° |
| 2026-05-08 15:29 | 37.40718 | 24.87191 | 17164 ft | 344 kts | 288° |
| 2026-05-08 15:30 | 37.41472 | 24.84331 | 17705 ft | 346 kts | 288° |
| 2026-05-08 15:30 | 37.42232 | 24.81445 | 18211 ft | 349 kts | 288° |
| 2026-05-08 15:30 | 37.43000 | 24.78538 | 18691 ft | 352 kts | 288° |
| 2026-05-08 15:30 | 37.43773 | 24.75611 | 19179 ft | 354 kts | 287° |
| 2026-05-08 15:31 | 37.44550 | 24.72659 | 19641 ft | 357 kts | 287° |
| 2026-05-08 15:31 | 37.45332 | 24.69683 | 20101 ft | 360 kts | 287° |
| 2026-05-08 15:31 | 37.46120 | 24.66684 | 20574 ft | 362 kts | 287° |
| 2026-05-08 15:31 | 37.46912 | 24.63656 | 21014 ft | 366 kts | 287° |
| 2026-05-08 15:32 | 37.47707 | 24.60609 | 21455 ft | 368 kts | 287° |
| 2026-05-08 15:32 | 37.48510 | 24.57549 | 21888 ft | 370 kts | 287° |
| 2026-05-08 15:32 | 37.49323 | 24.54465 | 22304 ft | 372 kts | 287° |
| 2026-05-08 15:32 | 37.50138 | 24.51366 | 22722 ft | 374 kts | 287° |
| 2026-05-08 15:33 | 37.50953 | 24.48249 | 23120 ft | 376 kts | 287° |
| 2026-05-08 15:33 | 37.51769 | 24.45109 | 23509 ft | 378 kts | 287° |
| 2026-05-08 15:33 | 37.52587 | 24.41950 | 23908 ft | 380 kts | 286° |
| 2026-05-08 15:33 | 37.53407 | 24.38787 | 24255 ft | 381 kts | 286° |
| 2026-05-08 15:34 | 37.54234 | 24.35608 | 24578 ft | 380 kts | 286° |
| 2026-05-08 15:34 | 37.55053 | 24.32464 | 24872 ft | 383 kts | 286° |
| 2026-05-08 15:34 | 37.55884 | 24.29262 | 25192 ft | 385 kts | 287° |
| 2026-05-08 15:34 | 37.56739 | 24.26061 | 25534 ft | 386 kts | 287° |
| 2026-05-08 15:35 | 37.57636 | 24.22849 | 25875 ft | 388 kts | 288° |
| 2026-05-08 15:35 | 37.58551 | 24.19640 | 26223 ft | 390 kts | 288° |
| 2026-05-08 15:35 | 37.59473 | 24.16424 | 26547 ft | 391 kts | 288° |
| 2026-05-08 15:35 | 37.60396 | 24.13186 | 26876 ft | 392 kts | 288° |
| 2026-05-08 15:36 | 37.61310 | 24.09942 | 27193 ft | 393 kts | 288° |
| 2026-05-08 15:36 | 37.61914 | 24.07784 | 27410 ft | 394 kts | 287° |
| 2026-05-08 15:36 | 37.63130 | 24.03416 | 27828 ft | 395 kts | 287° |
| 2026-05-08 15:36 | 37.64039 | 24.00142 | 28113 ft | 395 kts | 287° |
| 2026-05-08 15:37 | 37.64955 | 23.96850 | 28394 ft | 398 kts | 287° |
| 2026-05-08 15:37 | 37.65873 | 23.93548 | 28700 ft | 399 kts | 287° |
| 2026-05-08 15:37 | 37.66792 | 23.90238 | 28976 ft | 400 kts | 287° |
| 2026-05-08 15:37 | 37.67716 | 23.86911 | 29242 ft | 401 kts | 287° |
| 2026-05-08 15:38 | 37.68636 | 23.83584 | 29503 ft | 402 kts | 287° |
| 2026-05-08 15:38 | 37.69557 | 23.80229 | 29794 ft | 404 kts | 287° |
| 2026-05-08 15:38 | 37.70466 | 23.76917 | 30056 ft | 405 kts | 287° |
| 2026-05-08 15:38 | 37.71407 | 23.73503 | 30324 ft | 407 kts | 287° |
| 2026-05-08 15:39 | 37.72323 | 23.70170 | 30609 ft | 406 kts | 287° |
| 2026-05-08 15:39 | 37.73246 | 23.66809 | 30953 ft | 405 kts | 287° |
| 2026-05-08 15:39 | 37.74166 | 23.63456 | 31246 ft | 403 kts | 286° |
| 2026-05-08 15:39 | 37.75086 | 23.60104 | 31522 ft | 404 kts | 286° |
| 2026-05-08 15:40 | 37.76007 | 23.56754 | 31811 ft | 402 kts | 286° |
| 2026-05-08 15:40 | 37.76920 | 23.53423 | 32090 ft | 402 kts | 285° |
| 2026-05-08 15:40 | 37.77831 | 23.50087 | 32377 ft | 400 kts | 285° |
| 2026-05-08 15:40 | 37.78734 | 23.46761 | 32649 ft | 400 kts | 285° |
| 2026-05-08 15:41 | 37.79636 | 23.43436 | 32924 ft | 397 kts | 285° |
| 2026-05-08 15:41 | 37.80526 | 23.40146 | 33110 ft | 397 kts | 284° |
| 2026-05-08 15:41 | 37.81419 | 23.36837 | 33334 ft | 397 kts | 285° |
| 2026-05-08 15:41 | 37.82313 | 23.33527 | 33602 ft | 396 kts | 285° |
| 2026-05-08 15:42 | 37.83207 | 23.30235 | 33859 ft | 395 kts | 284° |
| 2026-05-08 15:42 | 37.84098 | 23.26944 | 34075 ft | 395 kts | 284° |
| 2026-05-08 15:42 | 37.84987 | 23.23662 | 34323 ft | 394 kts | 284° |
| 2026-05-08 15:42 | 37.85874 | 23.20385 | 34596 ft | 394 kts | 284° |
| 2026-05-08 15:43 | 37.86759 | 23.17105 | 34860 ft | 394 kts | 285° |
| 2026-05-08 15:43 | 37.87629 | 23.13837 | 35096 ft | 391 kts | 284° |
| 2026-05-08 15:43 | 37.88502 | 23.10573 | 35291 ft | 391 kts | 285° |
| 2026-05-08 15:43 | 37.89379 | 23.07314 | 35487 ft | 391 kts | 285° |
| 2026-05-08 15:44 | 37.90253 | 23.04055 | 35679 ft | 390 kts | 285° |
| 2026-05-08 15:44 | 37.91111 | 23.00850 | 35851 ft | 390 kts | 285° |
| 2026-05-08 15:44 | 37.91988 | 22.97597 | 36018 ft | 391 kts | 287° |
| 2026-05-08 15:44 | 37.93170 | 22.94475 | 36076 ft | 395 kts | 297° |
| 2026-05-08 15:45 | 37.96832 | 22.89177 | 36056 ft | 406 kts | 311° |
| 2026-05-08 15:45 | 38.01005 | 22.84337 | 36052 ft | 407 kts | 311° |
| 2026-05-08 15:46 | 38.05187 | 22.79469 | 36048 ft | 410 kts | 311° |
| 2026-05-08 15:46 | 38.09389 | 22.74575 | 36053 ft | 411 kts | 311° |
| 2026-05-08 15:47 | 38.13601 | 22.69659 | 36061 ft | 411 kts | 311° |
| 2026-05-08 15:47 | 38.17824 | 22.64764 | 36062 ft | 410 kts | 311° |
| 2026-05-08 15:48 | 38.24119 | 22.57468 | 36036 ft | 411 kts | 312° |
| 2026-05-08 15:49 | 38.28327 | 22.52564 | 36028 ft | 409 kts | 311° |
| 2026-05-08 15:49 | 38.32521 | 22.47657 | 36027 ft | 409 kts | 311° |
| 2026-05-08 15:50 | 38.36712 | 22.42744 | 36029 ft | 409 kts | 312° |
| 2026-05-08 15:50 | 38.40199 | 22.38657 | 36036 ft | 410 kts | 311° |
| 2026-05-08 15:51 | 38.44383 | 22.33739 | 36036 ft | 409 kts | 311° |
| 2026-05-08 15:51 | 38.48573 | 22.28806 | 36034 ft | 410 kts | 311° |
| 2026-05-08 15:52 | 38.52773 | 22.23862 | 36031 ft | 411 kts | 311° |
| 2026-05-08 15:52 | 38.56969 | 22.18912 | 36033 ft | 411 kts | 311° |
| 2026-05-08 15:53 | 38.61153 | 22.13961 | 36036 ft | 409 kts | 311° |
| 2026-05-08 15:53 | 38.65328 | 22.09004 | 36054 ft | 410 kts | 312° |
| 2026-05-08 15:54 | 38.69515 | 22.04032 | 36052 ft | 410 kts | 311° |
| 2026-05-08 15:54 | 38.73704 | 21.99051 | 36035 ft | 412 kts | 311° |
| 2026-05-08 15:55 | 38.77897 | 21.94063 | 36031 ft | 411 kts | 311° |
| 2026-05-08 15:55 | 38.84153 | 21.86585 | 36044 ft | 414 kts | 311° |
| 2026-05-08 15:56 | 38.88353 | 21.81582 | 36034 ft | 410 kts | 311° |
| 2026-05-08 15:56 | 38.92535 | 21.76560 | 36033 ft | 412 kts | 311° |
| 2026-05-08 15:57 | 38.96722 | 21.71526 | 36033 ft | 413 kts | 311° |
| 2026-05-08 15:57 | 39.00919 | 21.66460 | 36053 ft | 415 kts | 311° |
| 2026-05-08 15:58 | 39.05128 | 21.61390 | 36025 ft | 414 kts | 311° |
| 2026-05-08 15:58 | 39.09343 | 21.56324 | 36045 ft | 414 kts | 311° |
| 2026-05-08 15:59 | 39.13552 | 21.51261 | 36052 ft | 415 kts | 311° |
| 2026-05-08 15:59 | 39.17767 | 21.46146 | 36049 ft | 417 kts | 311° |
| 2026-05-08 16:00 | 39.22001 | 21.40999 | 36046 ft | 418 kts | 311° |
| 2026-05-08 16:00 | 39.26239 | 21.35857 | 36046 ft | 418 kts | 311° |
| 2026-05-08 16:01 | 39.30476 | 21.30708 | 36053 ft | 418 kts | 311° |
| 2026-05-08 16:01 | 39.34698 | 21.25554 | 36058 ft | 418 kts | 311° |
| 2026-05-08 16:02 | 39.38922 | 21.20386 | 36056 ft | 418 kts | 311° |
| 2026-05-08 16:02 | 39.43120 | 21.15255 | 36047 ft | 418 kts | 311° |
| 2026-05-08 16:03 | 39.47351 | 21.10068 | 36046 ft | 418 kts | 311° |
| 2026-05-08 16:03 | 39.51574 | 21.04884 | 36048 ft | 418 kts | 311° |
| 2026-05-08 16:04 | 39.55802 | 20.99687 | 36055 ft | 419 kts | 311° |
| 2026-05-08 16:04 | 39.60034 | 20.94484 | 36057 ft | 419 kts | 311° |
| 2026-05-08 16:05 | 39.64259 | 20.89258 | 36058 ft | 420 kts | 311° |
| 2026-05-08 16:05 | 39.68456 | 20.84057 | 36051 ft | 420 kts | 311° |
| 2026-05-08 16:06 | 39.73082 | 20.79220 | 36054 ft | 426 kts | 319° |
| 2026-05-08 16:06 | 39.77885 | 20.74699 | 36052 ft | 428 kts | 318° |
| 2026-05-08 16:07 | 39.82666 | 20.70177 | 36051 ft | 428 kts | 319° |
| 2026-05-08 16:07 | 39.87479 | 20.65622 | 36054 ft | 427 kts | 319° |
| 2026-05-08 16:08 | 39.92283 | 20.61054 | 36039 ft | 427 kts | 319° |
| 2026-05-08 16:08 | 39.97086 | 20.56487 | 36051 ft | 427 kts | 319° |
| 2026-05-08 16:09 | 40.01888 | 20.51907 | 36031 ft | 428 kts | 319° |
| 2026-05-08 16:09 | 40.06716 | 20.47300 | 36034 ft | 432 kts | 319° |
| 2026-05-08 16:10 | 40.11547 | 20.42653 | 36034 ft | 432 kts | 319° |
| 2026-05-08 16:10 | 40.16384 | 20.37991 | 36013 ft | 432 kts | 319° |
| 2026-05-08 16:11 | 40.21224 | 20.33328 | 36027 ft | 432 kts | 319° |
| 2026-05-08 16:11 | 40.26059 | 20.28655 | 36027 ft | 432 kts | 319° |
| 2026-05-08 16:12 | 40.30892 | 20.23966 | 36026 ft | 432 kts | 319° |
| 2026-05-08 16:12 | 40.35719 | 20.19270 | 36018 ft | 433 kts | 319° |
| 2026-05-08 16:13 | 40.40546 | 20.14564 | 36027 ft | 432 kts | 319° |
| 2026-05-08 16:13 | 40.45367 | 20.09863 | 36028 ft | 432 kts | 319° |
| 2026-05-08 16:14 | 40.50198 | 20.05152 | 36023 ft | 433 kts | 319° |
| 2026-05-08 16:14 | 40.55031 | 20.00433 | 36022 ft | 432 kts | 319° |
| 2026-05-08 16:15 | 40.59860 | 19.95701 | 36025 ft | 432 kts | 319° |
| 2026-05-08 16:15 | 40.64683 | 19.90986 | 36028 ft | 432 kts | 319° |
| 2026-05-08 16:16 | 40.69508 | 19.86252 | 36014 ft | 433 kts | 319° |
| 2026-05-08 16:16 | 40.74341 | 19.81483 | 36018 ft | 433 kts | 319° |
| 2026-05-08 16:17 | 40.78350 | 19.77540 | 36014 ft | 433 kts | 319° |
| 2026-05-08 16:17 | 40.83965 | 19.72001 | 35985 ft | 433 kts | 319° |
| 2026-05-08 16:18 | 40.88806 | 19.67205 | 35982 ft | 436 kts | 319° |
| 2026-05-08 16:18 | 40.93648 | 19.62385 | 35996 ft | 435 kts | 319° |
| 2026-05-08 16:19 | 40.98485 | 19.57579 | 35994 ft | 436 kts | 320° |
| 2026-05-08 16:19 | 41.03324 | 19.52758 | 35999 ft | 435 kts | 319° |
| 2026-05-08 16:20 | 41.08173 | 19.47924 | 35998 ft | 436 kts | 320° |
| 2026-05-08 16:20 | 41.13014 | 19.43075 | 36001 ft | 436 kts | 319° |
| 2026-05-08 16:21 | 41.17846 | 19.38240 | 36019 ft | 438 kts | 320° |
| 2026-05-08 16:21 | 41.22689 | 19.33372 | 35999 ft | 437 kts | 319° |
| 2026-05-08 16:22 | 41.27542 | 19.28497 | 35999 ft | 438 kts | 320° |
| 2026-05-08 16:22 | 41.32407 | 19.23603 | 35998 ft | 438 kts | 320° |
| 2026-05-08 16:23 | 41.37263 | 19.18712 | 35997 ft | 437 kts | 320° |
| 2026-05-08 16:23 | 41.42117 | 19.13806 | 35993 ft | 440 kts | 320° |
| 2026-05-08 16:24 | 41.46982 | 19.08864 | 35985 ft | 438 kts | 319° |
| 2026-05-08 16:24 | 41.51811 | 19.03936 | 35995 ft | 437 kts | 320° |
| 2026-05-08 16:25 | 41.56636 | 18.98999 | 35985 ft | 437 kts | 319° |
| 2026-05-08 16:25 | 41.61445 | 18.94059 | 35985 ft | 439 kts | 320° |
| 2026-05-08 16:26 | 41.66283 | 18.89092 | 35987 ft | 438 kts | 320° |
| 2026-05-08 16:26 | 41.71109 | 18.84126 | 35983 ft | 437 kts | 319° |
| 2026-05-08 16:27 | 41.75936 | 18.79143 | 35987 ft | 437 kts | 319° |
| 2026-05-08 16:27 | 41.80749 | 18.74155 | 35990 ft | 437 kts | 320° |
| 2026-05-08 16:28 | 41.85564 | 18.69164 | 35996 ft | 437 kts | 319° |
| 2026-05-08 16:28 | 41.90377 | 18.64174 | 35999 ft | 437 kts | 319° |
| 2026-05-08 16:29 | 41.95186 | 18.59168 | 36006 ft | 436 kts | 319° |
| 2026-05-08 16:29 | 41.99984 | 18.54178 | 35998 ft | 437 kts | 319° |
| 2026-05-08 16:30 | 42.04223 | 18.48389 | 35998 ft | 435 kts | 308° |
| 2026-05-08 16:30 | 42.08187 | 18.42216 | 35996 ft | 436 kts | 308° |
| 2026-05-08 16:31 | 42.12151 | 18.36031 | 35999 ft | 436 kts | 308° |
| 2026-05-08 16:31 | 42.16108 | 18.29847 | 35999 ft | 436 kts | 308° |
| 2026-05-08 16:32 | 42.20039 | 18.23691 | 35984 ft | 435 kts | 308° |
| 2026-05-08 16:32 | 42.23983 | 18.17495 | 36001 ft | 434 kts | 308° |
| 2026-05-08 16:33 | 42.27931 | 18.11311 | 36001 ft | 436 kts | 308° |
| 2026-05-08 16:33 | 42.31880 | 18.05104 | 35999 ft | 435 kts | 308° |
| 2026-05-08 16:34 | 42.35816 | 17.98880 | 35999 ft | 435 kts | 308° |
| 2026-05-08 16:34 | 42.39753 | 17.92655 | 35998 ft | 435 kts | 308° |
| 2026-05-08 16:35 | 42.43690 | 17.86435 | 35994 ft | 435 kts | 308° |
| 2026-05-08 16:35 | 42.47612 | 17.80197 | 35971 ft | 435 kts | 308° |
| 2026-05-08 16:36 | 42.49566 | 17.77062 | 35441 ft | 436 kts | 308° |
| 2026-05-08 16:36 | 42.51507 | 17.73949 | 34600 ft | 441 kts | 308° |
| 2026-05-08 16:36 | 42.53514 | 17.70742 | 34156 ft | 451 kts | 308° |
| 2026-05-08 16:36 | 42.55560 | 17.67484 | 33975 ft | 457 kts | 308° |
| 2026-05-08 16:37 | 42.59038 | 17.61950 | 34012 ft | 462 kts | 308° |
| 2026-05-08 16:37 | 42.63183 | 17.55330 | 34023 ft | 464 kts | 308° |
| 2026-05-08 16:38 | 42.67346 | 17.48645 | 34016 ft | 464 kts | 308° |
| 2026-05-08 16:38 | 42.71516 | 17.41951 | 34008 ft | 464 kts | 308° |
| 2026-05-08 16:39 | 42.75665 | 17.35249 | 34017 ft | 463 kts | 308° |
| 2026-05-08 16:39 | 42.79824 | 17.28504 | 34014 ft | 464 kts | 308° |
| 2026-05-08 16:40 | 42.83978 | 17.21773 | 34026 ft | 464 kts | 308° |
| 2026-05-08 16:40 | 42.88132 | 17.15037 | 34018 ft | 464 kts | 307° |
| 2026-05-08 16:41 | 42.92256 | 17.08340 | 34016 ft | 464 kts | 307° |
| 2026-05-08 16:42 | 42.98459 | 16.98185 | 34018 ft | 464 kts | 307° |
| 2026-05-08 16:42 | 43.02583 | 16.91424 | 34011 ft | 464 kts | 307° |
| 2026-05-08 16:43 | 43.06724 | 16.84654 | 34011 ft | 463 kts | 307° |
| 2026-05-08 16:43 | 43.10847 | 16.77888 | 34025 ft | 463 kts | 307° |
| 2026-05-08 16:44 | 43.14967 | 16.71095 | 34025 ft | 464 kts | 307° |
| 2026-05-08 16:44 | 43.19088 | 16.64287 | 34028 ft | 464 kts | 307° |
| 2026-05-08 16:45 | 43.23193 | 16.57491 | 34029 ft | 464 kts | 307° |
| 2026-05-08 16:45 | 43.27302 | 16.50657 | 34021 ft | 464 kts | 307° |
| 2026-05-08 16:46 | 43.31421 | 16.43805 | 34024 ft | 465 kts | 307° |
| 2026-05-08 16:46 | 43.35500 | 16.37022 | 34023 ft | 465 kts | 306° |
| 2026-05-08 16:47 | 43.39615 | 16.30134 | 34023 ft | 466 kts | 306° |
| 2026-05-08 16:47 | 43.43731 | 16.23242 | 34024 ft | 466 kts | 306° |
| 2026-05-08 16:48 | 43.47850 | 16.16339 | 34022 ft | 468 kts | 306° |
| 2026-05-08 16:48 | 43.51964 | 16.09410 | 34025 ft | 467 kts | 306° |
| 2026-05-08 16:49 | 43.56032 | 16.02534 | 34035 ft | 467 kts | 306° |
| 2026-05-08 16:49 | 43.60139 | 15.95589 | 34034 ft | 465 kts | 306° |
| 2026-05-08 16:50 | 43.64241 | 15.88624 | 34031 ft | 466 kts | 305° |
| 2026-05-08 16:50 | 43.68333 | 15.81681 | 34051 ft | 467 kts | 306° |
| 2026-05-08 16:51 | 43.72425 | 15.74712 | 34029 ft | 466 kts | 306° |
| 2026-05-08 16:51 | 43.76478 | 15.67798 | 34050 ft | 466 kts | 305° |
| 2026-05-08 16:52 | 43.80543 | 15.60816 | 34048 ft | 467 kts | 305° |
| 2026-05-08 16:52 | 43.84618 | 15.53839 | 34053 ft | 465 kts | 305° |
| 2026-05-08 16:53 | 43.90679 | 15.43445 | 34055 ft | 464 kts | 305° |
| 2026-05-08 16:53 | 43.94716 | 15.36458 | 34048 ft | 464 kts | 305° |
| 2026-05-08 16:54 | 43.98749 | 15.29457 | 34053 ft | 464 kts | 305° |
| 2026-05-08 16:54 | 44.02776 | 15.22472 | 34053 ft | 463 kts | 305° |
| 2026-05-08 16:55 | 44.06738 | 15.15597 | 34054 ft | 451 kts | 304° |
| 2026-05-08 16:55 | 44.10644 | 15.08807 | 34058 ft | 449 kts | 304° |
| 2026-05-08 16:56 | 44.14516 | 15.02030 | 34052 ft | 449 kts | 304° |
| 2026-05-08 16:56 | 44.18397 | 14.95212 | 34051 ft | 450 kts | 304° |
| 2026-05-08 16:57 | 44.22287 | 14.88393 | 34046 ft | 449 kts | 304° |
| 2026-05-08 16:57 | 44.26177 | 14.81568 | 34029 ft | 449 kts | 304° |
| 2026-05-08 16:58 | 44.30056 | 14.74724 | 34039 ft | 450 kts | 304° |
| 2026-05-08 16:58 | 44.33928 | 14.67857 | 34045 ft | 449 kts | 304° |
| 2026-05-08 16:59 | 44.37775 | 14.61040 | 34038 ft | 449 kts | 304° |
| 2026-05-08 16:59 | 44.41634 | 14.54183 | 34034 ft | 449 kts | 304° |
| 2026-05-08 17:00 | 44.45501 | 14.47311 | 34024 ft | 451 kts | 304° |
| 2026-05-08 17:00 | 44.49369 | 14.40400 | 34018 ft | 449 kts | 304° |
| 2026-05-08 17:01 | 44.53191 | 14.33572 | 34026 ft | 448 kts | 304° |
| 2026-05-08 17:01 | 44.57033 | 14.26686 | 34029 ft | 448 kts | 304° |
| 2026-05-08 17:02 | 44.60873 | 14.19798 | 34034 ft | 448 kts | 303° |
| 2026-05-08 17:02 | 44.64712 | 14.12881 | 34022 ft | 449 kts | 303° |
| 2026-05-08 17:03 | 44.68538 | 14.05961 | 34027 ft | 449 kts | 303° |
| 2026-05-08 17:03 | 44.72358 | 13.99022 | 34023 ft | 449 kts | 303° |
| 2026-05-08 17:04 | 44.76175 | 13.92106 | 34026 ft | 447 kts | 303° |
| 2026-05-08 17:04 | 44.79975 | 13.85203 | 34030 ft | 446 kts | 303° |
| 2026-05-08 17:05 | 44.83769 | 13.78277 | 34024 ft | 446 kts | 303° |
| 2026-05-08 17:05 | 44.87551 | 13.71364 | 34030 ft | 445 kts | 303° |
| 2026-05-08 17:06 | 44.91306 | 13.64497 | 34028 ft | 445 kts | 303° |
| 2026-05-08 17:06 | 44.95063 | 13.57575 | 34023 ft | 444 kts | 303° |
| 2026-05-08 17:07 | 44.98827 | 13.50655 | 34033 ft | 443 kts | 303° |
| 2026-05-08 17:07 | 45.02565 | 13.43756 | 34029 ft | 440 kts | 302° |
| 2026-05-08 17:08 | 45.06287 | 13.36857 | 34024 ft | 442 kts | 303° |
| 2026-05-08 17:08 | 45.10018 | 13.29942 | 34023 ft | 441 kts | 303° |
| 2026-05-08 17:09 | 45.13714 | 13.23079 | 34026 ft | 441 kts | 302° |
| 2026-05-08 17:09 | 45.17423 | 13.16146 | 34037 ft | 441 kts | 302° |
| 2026-05-08 17:10 | 45.21129 | 13.09222 | 34024 ft | 441 kts | 303° |
| 2026-05-08 17:10 | 45.24826 | 13.02313 | 34029 ft | 439 kts | 302° |
| 2026-05-08 17:11 | 45.28415 | 12.95290 | 34023 ft | 437 kts | 299° |
| 2026-05-08 17:11 | 45.31720 | 12.88057 | 34025 ft | 437 kts | 297° |
| 2026-05-08 17:12 | 45.34955 | 12.80745 | 34022 ft | 436 kts | 298° |
| 2026-05-08 17:12 | 45.38216 | 12.73562 | 34027 ft | 435 kts | 298° |
| 2026-05-08 17:13 | 45.41540 | 12.66340 | 34024 ft | 436 kts | 298° |
| 2026-05-08 17:13 | 45.44848 | 12.59119 | 34029 ft | 435 kts | 298° |
| 2026-05-08 17:14 | 45.48143 | 12.51887 | 34029 ft | 435 kts | 298° |
| 2026-05-08 17:14 | 45.51423 | 12.44645 | 34031 ft | 435 kts | 298° |
| 2026-05-08 17:15 | 45.54674 | 12.37425 | 34024 ft | 435 kts | 298° |
| 2026-05-08 17:15 | 45.57940 | 12.30204 | 34013 ft | 434 kts | 297° |
| 2026-05-08 17:16 | 45.61208 | 12.22968 | 34027 ft | 434 kts | 297° |
| 2026-05-08 17:16 | 45.64470 | 12.15710 | 34022 ft | 434 kts | 297° |
| 2026-05-08 17:17 | 45.67705 | 12.08433 | 34020 ft | 435 kts | 297° |
| 2026-05-08 17:17 | 45.70943 | 12.01168 | 34021 ft | 435 kts | 297° |
| 2026-05-08 17:18 | 45.74200 | 11.93871 | 34047 ft | 435 kts | 297° |
| 2026-05-08 17:18 | 45.77441 | 11.86577 | 34033 ft | 433 kts | 297° |
| 2026-05-08 17:19 | 45.80648 | 11.79314 | 34049 ft | 432 kts | 297° |
| 2026-05-08 17:19 | 45.83879 | 11.72009 | 34053 ft | 434 kts | 297° |
| 2026-05-08 17:20 | 45.87104 | 11.64704 | 34057 ft | 434 kts | 297° |
| 2026-05-08 17:20 | 45.90333 | 11.57393 | 34090 ft | 434 kts | 297° |
| 2026-05-08 17:21 | 45.93544 | 11.50076 | 34102 ft | 432 kts | 297° |
| 2026-05-08 17:21 | 45.96731 | 11.42775 | 34113 ft | 431 kts | 297° |
| 2026-05-08 17:22 | 45.99921 | 11.35467 | 34120 ft | 432 kts | 297° |
| 2026-05-08 17:22 | 46.03119 | 11.28124 | 34125 ft | 433 kts | 297° |
| 2026-05-08 17:23 | 46.06305 | 11.20775 | 34108 ft | 433 kts | 297° |
| 2026-05-08 17:23 | 46.09486 | 11.13426 | 34131 ft | 436 kts | 296° |
| 2026-05-08 17:24 | 46.12671 | 11.06034 | 34132 ft | 434 kts | 297° |
| 2026-05-08 17:24 | 46.15318 | 10.99880 | 34136 ft | 433 kts | 297° |
| 2026-05-08 17:25 | 46.18501 | 10.92483 | 34137 ft | 434 kts | 296° |
| 2026-05-08 17:25 | 46.21675 | 10.85073 | 34124 ft | 433 kts | 295° |
| 2026-05-08 17:26 | 46.24304 | 10.77321 | 34109 ft | 430 kts | 290° |
| 2026-05-08 17:26 | 46.26859 | 10.69498 | 34103 ft | 431 kts | 290° |
| 2026-05-08 17:27 | 46.29411 | 10.61667 | 34092 ft | 431 kts | 290° |
| 2026-05-08 17:27 | 46.31954 | 10.53814 | 34084 ft | 431 kts | 290° |
| 2026-05-08 17:28 | 46.34480 | 10.46012 | 34077 ft | 431 kts | 290° |
| 2026-05-08 17:28 | 46.37019 | 10.38151 | 34090 ft | 432 kts | 290° |
| 2026-05-08 17:29 | 46.39561 | 10.30252 | 34085 ft | 432 kts | 290° |
| 2026-05-08 17:29 | 46.42092 | 10.22369 | 34086 ft | 431 kts | 290° |
| 2026-05-08 17:30 | 46.44609 | 10.14483 | 34079 ft | 431 kts | 289° |
| 2026-05-08 17:30 | 46.47237 | 10.06641 | 34080 ft | 436 kts | 297° |
| 2026-05-08 17:31 | 46.51239 | 9.99915 | 34086 ft | 448 kts | 314° |
| 2026-05-08 17:31 | 46.55932 | 9.93921 | 34073 ft | 446 kts | 313° |
| 2026-05-08 17:32 | 46.60567 | 9.87924 | 34079 ft | 446 kts | 313° |
| 2026-05-08 17:32 | 46.65197 | 9.81918 | 34081 ft | 446 kts | 313° |
| 2026-05-08 17:33 | 46.69793 | 9.75958 | 34085 ft | 445 kts | 313° |
| 2026-05-08 17:33 | 46.74424 | 9.69947 | 34077 ft | 446 kts | 313° |
| 2026-05-08 17:34 | 46.79055 | 9.63945 | 34073 ft | 445 kts | 313° |
| 2026-05-08 17:34 | 46.83663 | 9.57915 | 34063 ft | 444 kts | 313° |
| 2026-05-08 17:35 | 46.88252 | 9.51899 | 34054 ft | 443 kts | 313° |
| 2026-05-08 17:35 | 46.92866 | 9.45850 | 34033 ft | 444 kts | 313° |
| 2026-05-08 17:36 | 46.97415 | 9.39843 | 34027 ft | 442 kts | 313° |
| 2026-05-08 17:36 | 47.02011 | 9.33842 | 34047 ft | 443 kts | 317° |
| 2026-05-08 17:37 | 47.07446 | 9.29380 | 34035 ft | 456 kts | 336° |
| 2026-05-08 17:37 | 47.13677 | 9.27209 | 34033 ft | 461 kts | 344° |
| 2026-05-08 17:38 | 47.19967 | 9.25298 | 34019 ft | 461 kts | 344° |
| 2026-05-08 17:38 | 47.26241 | 9.23371 | 34013 ft | 460 kts | 344° |
| 2026-05-08 17:39 | 47.32472 | 9.21465 | 34011 ft | 461 kts | 344° |
| 2026-05-08 17:39 | 47.38756 | 9.19555 | 34005 ft | 461 kts | 344° |
| 2026-05-08 17:40 | 47.45046 | 9.17639 | 34005 ft | 461 kts | 344° |
| 2026-05-08 17:40 | 47.51338 | 9.15701 | 34004 ft | 461 kts | 344° |
| 2026-05-08 17:41 | 47.57616 | 9.13750 | 34003 ft | 462 kts | 344° |
| 2026-05-08 17:41 | 47.63895 | 9.11788 | 33994 ft | 461 kts | 344° |
| 2026-05-08 17:42 | 47.70132 | 9.09843 | 34000 ft | 460 kts | 344° |
| 2026-05-08 17:42 | 47.76416 | 9.07892 | 33996 ft | 460 kts | 344° |
| 2026-05-08 17:43 | 47.82667 | 9.05959 | 34010 ft | 460 kts | 344° |
| 2026-05-08 17:43 | 47.88941 | 9.04007 | 34004 ft | 460 kts | 344° |
| 2026-05-08 17:44 | 47.95203 | 9.02051 | 34016 ft | 460 kts | 344° |
| 2026-05-08 17:44 | 48.01474 | 9.00131 | 34016 ft | 460 kts | 344° |
| 2026-05-08 17:45 | 48.07714 | 8.98201 | 34018 ft | 459 kts | 344° |
| 2026-05-08 17:45 | 48.13902 | 8.96245 | 33788 ft | 454 kts | 346° |
| 2026-05-08 17:46 | 48.17055 | 8.95691 | 33535 ft | 454 kts | 355° |
| 2026-05-08 17:46 | 48.20201 | 8.95870 | 33283 ft | 455 kts | 3° |
| 2026-05-08 17:46 | 48.23338 | 8.96355 | 33018 ft | 453 kts | 3° |
| 2026-05-08 17:46 | 48.26480 | 8.96845 | 32777 ft | 453 kts | 2° |
| 2026-05-08 17:47 | 48.29612 | 8.97325 | 32525 ft | 450 kts | 2° |
| 2026-05-08 17:47 | 48.32724 | 8.97793 | 32275 ft | 450 kts | 2° |
| 2026-05-08 17:47 | 48.35821 | 8.98251 | 32014 ft | 446 kts | 2° |
| 2026-05-08 17:47 | 48.37864 | 8.98557 | 31701 ft | 443 kts | 2° |
| 2026-05-08 17:48 | 48.41947 | 8.99187 | 30965 ft | 438 kts | 2° |
| 2026-05-08 17:48 | 48.44984 | 8.99659 | 30450 ft | 438 kts | 2° |
| 2026-05-08 17:48 | 48.48000 | 9.00120 | 29927 ft | 435 kts | 2° |
| 2026-05-08 17:48 | 48.50998 | 9.00574 | 29403 ft | 432 kts | 2° |
| 2026-05-08 17:49 | 48.53988 | 9.01019 | 28906 ft | 430 kts | 2° |
| 2026-05-08 17:49 | 48.56946 | 9.01468 | 28410 ft | 426 kts | 2° |
| 2026-05-08 17:49 | 48.59892 | 9.01924 | 27911 ft | 424 kts | 2° |
| 2026-05-08 17:49 | 48.62816 | 9.02376 | 27434 ft | 419 kts | 3° |
| 2026-05-08 17:50 | 48.65698 | 9.02919 | 26960 ft | 416 kts | 5° |
| 2026-05-08 17:50 | 48.68542 | 9.03568 | 26498 ft | 412 kts | 6° |
| 2026-05-08 17:50 | 48.71351 | 9.04264 | 26045 ft | 406 kts | 6° |
| 2026-05-08 17:50 | 48.74088 | 9.04968 | 25596 ft | 403 kts | 7° |
| 2026-05-08 17:51 | 48.76840 | 9.05675 | 25157 ft | 398 kts | 6° |
| 2026-05-08 17:51 | 48.79556 | 9.06355 | 24707 ft | 394 kts | 6° |
| 2026-05-08 17:51 | 48.82247 | 9.07012 | 24260 ft | 389 kts | 6° |
| 2026-05-08 17:51 | 48.84905 | 9.07653 | 23816 ft | 385 kts | 6° |
| 2026-05-08 17:52 | 48.87521 | 9.08280 | 23365 ft | 381 kts | 6° |
| 2026-05-08 17:52 | 48.90141 | 9.08836 | 22899 ft | 377 kts | 4° |
| 2026-05-08 17:52 | 48.95317 | 9.09588 | 22020 ft | 371 kts | 2° |
| 2026-05-08 17:53 | 48.97891 | 9.09899 | 21570 ft | 369 kts | 2° |
| 2026-05-08 17:53 | 49.00449 | 9.10217 | 21146 ft | 367 kts | 2° |
| 2026-05-08 17:53 | 49.03019 | 9.10554 | 20710 ft | 386 kts | 2° |
| 2026-05-08 17:53 | 49.05763 | 9.10914 | 20153 ft | 401 kts | 2° |
| 2026-05-08 17:54 | 49.08550 | 9.11301 | 19652 ft | 402 kts | 3° |
| 2026-05-08 17:54 | 49.11338 | 9.11704 | 19151 ft | 402 kts | 3° |
| 2026-05-08 17:54 | 49.14084 | 9.12106 | 18655 ft | 398 kts | 3° |
| 2026-05-08 17:54 | 49.16830 | 9.12507 | 18151 ft | 395 kts | 3° |
| 2026-05-08 17:55 | 49.19558 | 9.12906 | 17662 ft | 392 kts | 3° |
| 2026-05-08 17:55 | 49.22265 | 9.13297 | 17168 ft | 389 kts | 3° |
| 2026-05-08 17:55 | 49.24952 | 9.13690 | 16693 ft | 386 kts | 3° |
| 2026-05-08 17:55 | 49.27624 | 9.14075 | 16206 ft | 385 kts | 4° |
| 2026-05-08 17:56 | 49.30249 | 9.14832 | 15691 ft | 384 kts | 11° |
| 2026-05-08 17:56 | 49.32843 | 9.15752 | 15149 ft | 382 kts | 11° |
| 2026-05-08 17:56 | 49.35394 | 9.16664 | 14638 ft | 379 kts | 11° |
| 2026-05-08 17:56 | 49.37960 | 9.17580 | 14110 ft | 377 kts | 11° |
| 2026-05-08 17:57 | 49.40506 | 9.18489 | 13595 ft | 375 kts | 11° |
| 2026-05-08 17:57 | 49.43045 | 9.19395 | 13067 ft | 373 kts | 11° |
| 2026-05-08 17:57 | 49.45561 | 9.20282 | 12556 ft | 370 kts | 11° |
| 2026-05-08 17:57 | 49.48061 | 9.21162 | 12036 ft | 367 kts | 12° |
| 2026-05-08 17:58 | 49.50533 | 9.22042 | 11523 ft | 364 kts | 12° |
| 2026-05-08 17:58 | 49.52981 | 9.22915 | 11041 ft | 359 kts | 12° |
| 2026-05-08 17:58 | 49.55393 | 9.23769 | 10869 ft | 355 kts | 12° |
| 2026-05-08 17:58 | 49.57805 | 9.24627 | 10780 ft | 355 kts | 12° |
| 2026-05-08 17:59 | 49.60208 | 9.25486 | 10650 ft | 354 kts | 12° |
| 2026-05-08 17:59 | 49.62603 | 9.26344 | 10519 ft | 352 kts | 12° |
| 2026-05-08 17:59 | 49.64987 | 9.27194 | 10390 ft | 351 kts | 13° |
| 2026-05-08 17:59 | 49.67367 | 9.28050 | 10233 ft | 352 kts | 12° |
| 2026-05-08 18:00 | 49.69741 | 9.28902 | 10093 ft | 351 kts | 13° |
| 2026-05-08 18:00 | 49.74413 | 9.30582 | 9861 ft | 331 kts | 13° |
| 2026-05-08 18:00 | 49.76605 | 9.31375 | 9533 ft | 323 kts | 13° |
| 2026-05-08 18:01 | 49.78732 | 9.32145 | 9182 ft | 306 kts | 13° |
| 2026-05-08 18:01 | 49.80761 | 9.32874 | 8837 ft | 292 kts | 13° |
| 2026-05-08 18:01 | 49.82745 | 9.33490 | 8503 ft | 288 kts | 3° |
| 2026-05-08 18:01 | 49.84705 | 9.33052 | 8170 ft | 285 kts | 337° |
| 2026-05-08 18:02 | 49.86328 | 9.31379 | 8082 ft | 281 kts | 313° |
| 2026-05-08 18:02 | 49.87096 | 9.29762 | 8088 ft | 282 kts | 297° |
| 2026-05-08 18:02 | 49.87955 | 9.25918 | 8100 ft | 283 kts | 286° |
| 2026-05-08 18:02 | 49.88515 | 9.22984 | 8098 ft | 284 kts | 286° |
| 2026-05-08 18:03 | 49.89072 | 9.20037 | 8091 ft | 284 kts | 287° |
| 2026-05-08 18:03 | 49.89623 | 9.17152 | 8095 ft | 282 kts | 287° |
| 2026-05-08 18:03 | 49.90179 | 9.14225 | 8098 ft | 283 kts | 286° |
| 2026-05-08 18:03 | 49.90732 | 9.11302 | 8094 ft | 283 kts | 286° |
| 2026-05-08 18:04 | 49.91289 | 9.08374 | 8091 ft | 283 kts | 286° |
| 2026-05-08 18:04 | 49.91847 | 9.05432 | 8093 ft | 285 kts | 286° |
| 2026-05-08 18:04 | 49.92403 | 9.02494 | 8097 ft | 283 kts | 286° |
| 2026-05-08 18:04 | 49.92966 | 8.99567 | 8090 ft | 283 kts | 287° |
| 2026-05-08 18:05 | 49.93529 | 8.96642 | 8084 ft | 283 kts | 287° |
| 2026-05-08 18:05 | 49.94092 | 8.93723 | 8086 ft | 282 kts | 287° |
| 2026-05-08 18:05 | 49.94658 | 8.90789 | 8090 ft | 284 kts | 287° |
| 2026-05-08 18:05 | 49.95216 | 8.87856 | 8083 ft | 283 kts | 286° |
| 2026-05-08 18:06 | 49.95769 | 8.84920 | 8083 ft | 284 kts | 286° |
| 2026-05-08 18:06 | 49.96315 | 8.81981 | 8086 ft | 282 kts | 286° |
| 2026-05-08 18:06 | 49.96859 | 8.79071 | 8081 ft | 283 kts | 287° |
| 2026-05-08 18:06 | 49.97412 | 8.76148 | 8081 ft | 282 kts | 286° |
| 2026-05-08 18:07 | 49.97836 | 8.73172 | 8081 ft | 283 kts | 275° |
| 2026-05-08 18:07 | 49.97756 | 8.70142 | 8085 ft | 282 kts | 259° |
| 2026-05-08 18:07 | 49.97206 | 8.67304 | 8083 ft | 263 kts | 249° |
| 2026-05-08 18:07 | 49.96581 | 8.64738 | 8083 ft | 252 kts | 249° |
| 2026-05-08 18:08 | 49.95969 | 8.62198 | 8082 ft | 250 kts | 249° |
| 2026-05-08 18:08 | 49.95360 | 8.59669 | 8085 ft | 250 kts | 250° |
| 2026-05-08 18:08 | 49.94754 | 8.57145 | 8088 ft | 249 kts | 250° |
| 2026-05-08 18:08 | 49.94145 | 8.54619 | 8090 ft | 249 kts | 250° |
| 2026-05-08 18:09 | 49.93533 | 8.52090 | 7877 ft | 253 kts | 249° |
| 2026-05-08 18:09 | 49.92921 | 8.49538 | 7369 ft | 251 kts | 250° |
| 2026-05-08 18:09 | 49.92318 | 8.47034 | 6868 ft | 245 kts | 249° |
| 2026-05-08 18:09 | 49.91728 | 8.44575 | 6356 ft | 241 kts | 250° |
| 2026-05-08 18:10 | 49.91143 | 8.42134 | 5863 ft | 241 kts | 250° |
| 2026-05-08 18:10 | 49.90556 | 8.39694 | 5355 ft | 241 kts | 250° |
| 2026-05-08 18:10 | 49.89977 | 8.37264 | 4856 ft | 240 kts | 250° |
| 2026-05-08 18:10 | 49.89394 | 8.34847 | 4341 ft | 239 kts | 249° |
| 2026-05-08 18:11 | 49.88802 | 8.32436 | 4044 ft | 237 kts | 249° |
| 2026-05-08 18:11 | 49.88222 | 8.30070 | 4024 ft | 238 kts | 249° |
| 2026-05-08 18:11 | 49.87635 | 8.27662 | 4020 ft | 239 kts | 250° |
| 2026-05-08 18:11 | 49.87043 | 8.25258 | 4035 ft | 239 kts | 249° |
| 2026-05-08 18:12 | 49.86637 | 8.22778 | 4019 ft | 238 kts | 271° |
| 2026-05-08 18:12 | 49.86847 | 8.20239 | 4039 ft | 239 kts | 282° |
| 2026-05-08 18:12 | 49.87073 | 8.18564 | 4029 ft | 238 kts | 283° |
| 2026-05-08 18:12 | 49.87437 | 8.16058 | 4027 ft | 237 kts | 285° |
| 2026-05-08 18:13 | 49.88159 | 8.13813 | 4019 ft | 233 kts | 315° |
| 2026-05-08 18:13 | 49.89470 | 8.12342 | 4038 ft | 234 kts | 332° |
| 2026-05-08 18:13 | 49.90892 | 8.11137 | 4043 ft | 232 kts | 334° |
| 2026-05-08 18:13 | 49.92394 | 8.10276 | 4034 ft | 230 kts | 358° |
| 2026-05-08 18:14 | 49.93899 | 8.10881 | 4030 ft | 226 kts | 37° |
| 2026-05-08 18:14 | 49.94813 | 8.12817 | 4034 ft | 223 kts | 67° |
| 2026-05-08 18:14 | 49.95337 | 8.14993 | 4025 ft | 208 kts | 70° |
| 2026-05-08 18:14 | 49.95820 | 8.17050 | 4025 ft | 198 kts | 69° |
| 2026-05-08 18:15 | 49.96299 | 8.19024 | 4045 ft | 196 kts | 69° |
| 2026-05-08 18:15 | 49.96775 | 8.20983 | 4027 ft | 194 kts | 70° |
| 2026-05-08 18:15 | 49.97251 | 8.22960 | 4000 ft | 197 kts | 69° |
| 2026-05-08 18:15 | 49.97724 | 8.24915 | 3810 ft | 195 kts | 69° |
| 2026-05-08 18:16 | 49.98209 | 8.26916 | 3547 ft | 195 kts | 69° |
| 2026-05-08 18:16 | 49.98684 | 8.28864 | 3288 ft | 189 kts | 69° |
| 2026-05-08 18:16 | 49.99141 | 8.30758 | 3029 ft | 185 kts | 69° |
| 2026-05-08 18:16 | 49.99580 | 8.32589 | 2774 ft | 183 kts | 69° |
| 2026-05-08 18:17 | 50.00031 | 8.34438 | 2510 ft | 182 kts | 69° |
| 2026-05-08 18:17 | 50.00471 | 8.36278 | 2241 ft | 181 kts | 69° |
| 2026-05-08 18:17 | 50.00909 | 8.38086 | 1979 ft | 174 kts | 70° |
| 2026-05-08 18:17 | 50.01326 | 8.39804 | 1756 ft | 165 kts | 69° |
| 2026-05-08 18:18 | 50.01714 | 8.41424 | 1529 ft | 154 kts | 69° |
| 2026-05-08 18:18 | 50.02071 | 8.42916 | 1301 ft | 143 kts | 69° |
| 2026-05-08 18:18 | 50.02417 | 8.44347 | 1098 ft | 140 kts | 69° |
| 2026-05-08 18:18 | 50.02756 | 8.45759 | 909 ft | 139 kts | 68° |
| 2026-05-08 18:19 | 50.03094 | 8.47159 | 700 ft | 139 kts | 66° |
| 2026-05-08 18:19 | 50.03433 | 8.48562 | 523 ft | 138 kts | 67° |
| 2026-05-08 18:19 | 50.03769 | 8.49962 | 336 ft | 138 kts | 68° |
| 2026-05-08 18:19 | 50.04068 | 8.51216 | 329 ft | 104 kts | 70° |
| 2026-05-08 18:20 | 50.04274 | 8.52080 | 335 ft | 74 kts | 69° |
| 2026-05-08 18:20 | 50.04397 | 8.52612 | 349 ft | 40 kts | 78° |
| 2026-05-08 18:20 | 50.04376 | 8.52978 | 360 ft | 24 kts | 100° |
| 2026-05-08 18:20 | 50.04352 | 8.53189 | 363 ft | 18 kts | 99° |
| 2026-05-08 18:21 | 50.04366 | 8.53367 | 369 ft | 20 kts | 69° |
| 2026-05-08 18:21 | 50.04402 | 8.53616 | 375 ft | 25 kts | 84° |
| 2026-05-08 18:21 | 50.04420 | 8.53892 | 375 ft | 26 kts | 84° |
| 2026-05-08 18:21 | 50.04438 | 8.54153 | 375 ft | 24 kts | 84° |
| 2026-05-08 18:22 | 50.04452 | 8.54361 | 373 ft | 19 kts | 83° |
| 2026-05-08 18:22 | 50.04445 | 8.54527 | 368 ft | 13 kts | 103° |
| 2026-05-08 18:22 | 50.04399 | 8.54666 | 364 ft | 16 kts | 128° |
| 2026-05-08 18:22 | 50.04322 | 8.54765 | 359 ft | 12 kts | 151° |
| 2026-05-08 18:23 | 50.04240 | 8.54814 | 355 ft | 14 kts | 160° |
| 2026-05-08 18:23 | 50.04154 | 8.54861 | 358 ft | 12 kts | 160° |
| 2026-05-08 18:23 | 50.04085 | 8.54901 | 354 ft | 9 kts | 159° |
| 2026-05-08 18:23 | 50.04014 | 8.54977 | 360 ft | 15 kts | 102° |
| 2026-05-08 18:24 | 50.04041 | 8.55116 | 356 ft | 12 kts | 68° |
| 2026-05-08 18:24 | 50.04078 | 8.55267 | 360 ft | 17 kts | 69° |
| 2026-05-08 18:24 | 50.04120 | 8.55443 | 351 ft | 13 kts | 70° |
| 2026-05-08 18:24 | 50.04103 | 8.55511 | 356 ft | 9 kts | 158° |
| 2026-05-08 18:25 | 50.04055 | 8.55537 | 351 ft | 4 kts | 160° |
| 2026-05-08 18:25 | 50.04042 | 8.55545 | 351 ft | 0 kts | 160° |